Terminal Aerodrome Forecast
Issued by NWS

Home | Current Version | Previous Version | Text Only | Print | Product List | Glossary On
Versions: 1 2 3 4 5 6 7 8 9 10 11 12 13 14 15 16 17 18 19
000
FTUS45 KVEF 291735
TAFHND
TAF
KHND 291735Z 2918/3018 VRB06KT P6SM FEW070 SCT110
     FM292100 25010KT P6SM FEW070 SCT110
     FM300300 22011KT P6SM SCT090 BKN120
     FM300900 22011KT P6SM SCT060 BKN080=

USA.gov is the U.S. government's official web portal to all federal, state and local government web resources and services.